Flight Track Log - Related Links

Times and Time Zones

All times are in EDT time to prevent confusion due to time zone crossing. See the N485R flight status page for this flight to view local times or setup timezone preferences in your user account.

Time Position Orientation Groundspeed Altitude Reporting Facility
EDT Latitude Longitude Course Direction KTS MPH feet Rate Location/Type
Wed 05:04:46 PM 44.8136 -75.0328 215° Southwest 234 269 7,200  Level Boston Center
Wed 05:05:47 PM 44.7772 -75.0692 215° Southwest 183 211 8,600 1,450 Climbing Boston Center
Wed 05:06:46 PM 44.7428 -75.1172 225° Southwest 170 196 10,100 1,513 Climbing Boston Center
Wed 05:07:46 PM 44.7086 -75.1594 221° Southwest 170 196 11,600 1,488 Climbing Boston Center
Wed 05:08:00 PM 44.6895 -75.1439 215° Southwest  Level FlightAware Approximate
Wed 05:08:47 PM 44.6742 -75.2017 221° Southwest 170 196 13,100  Level Boston Center
Wed 05:09:00 PM 44.6351 -75.1983 215° Southwest  Level FlightAware Approximate
Wed 05:09:47 PM 44.6378 -75.2439 220° Southwest 170 196 14,300  Level Boston Center
Wed 05:10:48 PM 44.6033 -75.2858 221° Southwest 170 196 15,400 1,091 Climbing Boston Center
Wed 05:11:48 PM 44.5669 -75.3278 219° Southwest 176 203 16,500 1,100 Climbing Boston Center
Wed 05:12:48 PM 44.5281 -75.3756 221° Southwest 176 203 17,600 1,068 Climbing Boston Center
Wed 05:13:46 PM 44.4914 -75.4231 223° Southwest 176 203 18,600 1,017 Climbing Boston Center
Wed 05:14:46 PM 44.4550 -75.4678 221° Southwest 176 203 19,600 744 Climbing Boston Center
Wed 05:15:47 PM 44.4142 -75.5153 220° Southwest 183 211 20,100 248 Climbing Boston Center
Wed 05:16:47 PM 44.3667 -75.5708 220° Southwest 203 234 20,100  Level Boston Center
Wed 05:17:48 PM 44.3192 -75.6292 221° Southwest 223 257 20,100 -50 Level Boston Center
Wed 05:18:46 PM 44.2675 -75.6931 222° Southwest 236 272 20,000 -50 Descending Boston Center
Wed 05:19:47 PM 44.2158 -75.7511 219° Southwest 241 277 20,000  Level Boston Center
Wed 05:20:47 PM 44.1639 -75.8119 220° Southwest 246 283 20,000  Level Boston Center
Wed 05:21:48 PM 44.1142 -75.8758 223° Southwest 246 283 20,000  Level Boston Center
Wed 05:22:48 PM 44.0622 -75.9333 219° Southwest 246 283 20,000  Level Boston Center
Wed 05:23:46 PM 44.0103 -75.9967 221° Southwest 246 283 20,000  Level Boston Center
Wed 05:24:47 PM 43.9694 -76.0433 219° Southwest 246 283 20,000  Level Boston Center
Wed 05:25:48 PM 43.8947 -76.0908 205° Southwest 246 283 20,000  Level Boston Center
Wed 05:26:48 PM 43.8272 -76.1183 196° South 246 283 20,000  Level Boston Center
Wed 05:27:46 PM 43.7575 -76.1458 196° South 257 296 20,000  Level Boston Center
Wed 05:28:47 PM 43.6919 -76.1761 198° South 257 296 20,000  Level Boston Center
Wed 05:29:49 PM 43.6244 -76.2008 195° South 257 296 20,000  Level Boston Center
Wed 05:30:46 PM 43.5589 -76.2311 199° South 257 296 20,000  Level Boston Center
Wed 05:31:47 PM 43.4911 -76.2583 196° South 252 290 20,000  Level Boston Center
Wed 05:32:47 PM 43.4236 -76.2883 198° South 252 290 20,000  Level Boston Center
Wed 05:33:47 PM 43.3581 -76.3128 195° South 252 290 20,000  Level Boston Center
Wed 05:34:48 PM 43.2903 -76.3428 198° South 252 290 20,000  Level Boston Center
Wed 05:35:48 PM 43.2247 -76.3700 197° South 252 290 20,000  Level Boston Center
Wed 05:36:46 PM 43.1592 -76.3942 195° South 247 284 20,000  Level Boston Center
Wed 05:37:47 PM 43.1064 -76.4192 199° South 247 284 20,000  Level Boston Center
Wed 05:38:49 PM 43.0258 -76.4508 196° South 247 284 20,000  Level Boston Center
Wed 05:39:46 PM 42.9667 -76.4725 195° South 247 284 20,000  Level Boston Center
Wed 05:41:54 PM 42.8244 -76.5306 197° South 242 278 20,000  Level New York Center
Wed 05:42:54 PM 42.7567 -76.5583 197° South 247 284 20,000  Level New York Center
Wed 05:43:55 PM 42.6906 -76.5864 197° South 247 284 20,000  Level New York Center
Wed 05:44:56 PM 42.6228 -76.6111 195° South 247 284 20,000  Level New York Center
Wed 05:45:54 PM 42.5550 -76.6389 197° South 247 284 20,000  Level New York Center
Wed 05:46:56 PM 42.4892 -76.6667 197° South 247 284 20,000  Level New York Center
Wed 05:47:56 PM 42.4211 -76.6944 197° South 247 284 20,000  Level New York Center
Wed 05:48:54 PM 42.3533 -76.7192 195° South 247 284 20,000  Level New York Center
Wed 05:49:55 PM 42.2853 -76.7467 197° South 247 284 20,000  Level New York Center
Wed 05:50:55 PM 42.2172 -76.7767 198° South 247 284 20,000  Level New York Center
Wed 05:51:56 PM 42.1447 -76.8067 197° South 247 284 20,000  Level New York Center
Wed 05:52:54 PM 42.0769 -76.8311 195° South 247 284 20,000  Level New York Center
Wed 05:53:54 PM 42.0092 -76.8556 195° South 247 284 20,000  Level New York Center
Wed 05:54:55 PM 41.9453 -76.8803 196° South 254 292 20,000  Level New York Center
Wed 05:55:55 PM 41.8794 -76.9078 197° South 254 292 20,000  Level New York Center
Wed 05:56:56 PM 41.8114 -76.9350 197° South 254 292 20,000  Level New York Center
Wed 05:57:54 PM 41.7453 -76.9622 197° South 254 292 20,000  Level New York Center
Wed 05:58:54 PM 41.6711 -76.9886 195° South 249 287 20,000  Level New York Center
Wed 05:59:55 PM 41.6031 -77.0156 196° South 249 287 20,000  Level New York Center
Wed 06:01:00 PM 41.5283 -77.0165 181° South  Level FlightAware Approximate
Wed 06:01:56 PM 41.4692 -77.0669 181° South 249 287 20,000  Level New York Center
Wed 06:02:54 PM 41.4011 -77.0908 195° South 249 287 20,000  Level New York Center
Wed 06:03:54 PM 41.3350 -77.1206 199° South 249 287 20,000  Level New York Center
Wed 06:04:54 PM 41.2669 -77.1447 195° South 249 287 20,000  Level New York Center
Wed 06:05:55 PM 41.2008 -77.1714 197° South 249 287 20,000  Level New York Center
Wed 06:06:55 PM 41.1331 -77.1953 195° South 249 287 20,000  Level New York Center
Wed 06:07:56 PM 41.0647 -77.2219 196° South 249 287 20,000  Level New York Center
Wed 06:08:56 PM 40.9989 -77.2486 197° South 249 287 20,000  Level New York Center
Wed 06:09:54 PM 40.9328 -77.2728 195° South 249 287 20,000  Level New York Center
Wed 06:10:55 PM 40.8647 -77.2992 196° South 249 287 20,000  Level New York Center
Wed 06:11:56 PM 40.7989 -77.3231 195° South 249 287 20,000  Level New York Center
Wed 06:12:54 PM 40.7347 -77.3497 197° South 249 287 20,000  Level New York Center
Wed 06:13:54 PM 40.6667 -77.3733 195° South 249 287 20,000  Level New York Center
Wed 06:14:56 PM 40.6006 -77.3997 197° South 249 287 20,000  Level New York Center
Wed 06:15:56 PM 40.5344 -77.4261 197° South 249 287 20,000  Level New York Center
Wed 06:16:54 PM 40.4664 -77.4497 195° South 249 287 20,000  Level New York Center
Wed 06:17:55 PM 40.3983 -77.4758 195° South 249 287 20,000  Level New York Center
Wed 06:18:00 PM 40.3931 -77.4757 195° South  Level FlightAware Approximate
Wed 06:18:55 PM 40.3325 -77.4994 195° South 249 287 20,000  Level New York Center
Wed 06:19:54 PM 40.2642 -77.5253 196° South 249 287 20,000  Level New York Center
Wed 06:21:55 PM 40.1328 -77.5750 196° South 254 292 20,000  Level Washington Center
Wed 06:22:55 PM 40.0636 -77.6000 195° South 254 292 20,000  Level Washington Center
Wed 06:23:56 PM 39.9944 -77.6253 196° South 259 298 20,000  Level Washington Center
Wed 06:24:54 PM 39.9253 -77.6475 194° South 264 304 20,000  Level Washington Center
Wed 06:25:54 PM 39.8603 -77.6756 198° South 264 304 20,000  Level Washington Center
Wed 06:26:55 PM 39.7992 -77.7142 206° Southwest 264 304 20,000  Level Washington Center
Wed 06:27:56 PM 39.7500 -77.7803 226° Southwest 259 298 20,000  Level Washington Center
Wed 06:28:56 PM 39.7031 -77.8436 226° Southwest 254 292 20,000  Level Washington Center
Wed 06:29:54 PM 39.6603 -77.9097 230° Southwest 254 292 20,000  Level Washington Center
Wed 06:30:55 PM 39.6131 -77.9781 228° Southwest 254 292 20,000  Level Washington Center
Wed 06:31:55 PM 39.5681 -78.0414 227° Southwest 254 292 20,000  Level Washington Center
Wed 06:32:56 PM 39.5208 -78.1069 227° Southwest 254 292 20,000  Level Washington Center
Wed 06:33:56 PM 39.4778 -78.1728 230° Southwest 254 292 20,000  Level Washington Center
Wed 06:34:54 PM 39.4347 -78.2356 228° Southwest 254 292 20,000 353 Level Washington Center
Wed 06:35:55 PM 39.3917 -78.2986 229° Southwest 249 287 20,700 744 Climbing Washington Center
Wed 06:36:55 PM 39.3508 -78.3533 226° Southwest 237 273 21,500 645 Climbing Washington Center
Wed 06:37:56 PM 39.3039 -78.3917 212° Southwest 221 254 22,000 252 Climbing Washington Center
Wed 06:38:54 PM 39.2392 -78.4028 188° South 216 249 22,000  Level Washington Center
Wed 06:39:55 PM 39.1636 -78.4211 191° South 244 281 22,000  Level Washington Center
Wed 06:40:56 PM 39.0944 -78.4347 189° South 251 289 22,000  Level Washington Center
Wed 06:41:56 PM 39.0275 -78.4533 192° South 256 295 22,000  Level Washington Center
Wed 06:42:54 PM 38.9581 -78.4719 192° South 256 295 22,000  Level Washington Center
Wed 06:43:55 PM 38.8889 -78.4881 190° South 256 295 22,000  Level Washington Center
Wed 06:44:56 PM 38.8175 -78.5092 193° South 256 295 22,000  Level Washington Center
Wed 06:45:55 PM 38.7506 -78.5250 190° South 256 295 22,000  Level Washington Center
Wed 06:46:56 PM 38.6811 -78.5436 192° South 256 295 22,000  Level Washington Center
Wed 06:47:56 PM 38.6119 -78.5622 192° South 256 295 22,000  Level Washington Center
Wed 06:48:54 PM 38.5406 -78.5806 191° South 261 300 22,000  Level Washington Center
Wed 06:49:54 PM 38.4714 -78.5989 192° South 261 300 22,000  Level Washington Center
Wed 06:50:54 PM 38.4022 -78.6147 190° South 261 300 22,000  Level Washington Center
Wed 06:51:56 PM 38.3308 -78.6356 193° South 261 300 22,000  Level Washington Center
Wed 06:52:54 PM 38.2761 -78.6492 191° South 261 300 22,000  Level Washington Center
Wed 06:53:54 PM 38.2006 -78.6700 192° South 261 300 22,000  Level Washington Center
Wed 06:54:56 PM 38.1228 -78.6906 192° South 261 300 22,000  Level Washington Center
Wed 06:55:56 PM 38.0517 -78.7061 190° South 261 300 22,000  Level Washington Center
Wed 06:56:54 PM 37.9803 -78.7242 191° South 261 300 22,000  Level Washington Center
Wed 06:57:54 PM 37.9108 -78.7422 192° South 261 300 22,000  Level Washington Center
Wed 06:58:55 PM 37.8478 -78.7581 191° South 261 300 22,000  Level Washington Center
Wed 06:59:55 PM 37.7786 -78.7736 190° South 261 300 22,000  Level Washington Center
Wed 07:00:55 PM 37.7072 -78.7917 191° South 261 300 22,000  Level Washington Center
Wed 07:01:54 PM 37.6378 -78.8097 192° South 261 300 22,000  Level Washington Center
Wed 07:02:55 PM 37.5686 -78.8250 190° South 261 300 22,000  Level Washington Center
Wed 07:03:56 PM 37.4889 -78.8453 191° South 261 300 22,000  Level Washington Center
Wed 07:04:54 PM 37.4194 -78.8631 191° South 261 300 22,000  Level Washington Center
Wed 07:05:54 PM 37.3481 -78.8811 191° South 261 300 22,000  Level Washington Center
Wed 07:06:55 PM 37.2767 -78.8989 191° South 261 300 22,000  Level Washington Center
Wed 07:07:55 PM 37.2136 -78.9117 189° South 261 300 22,000  Level Washington Center
Wed 07:08:55 PM 37.1444 -78.9297 192° South 261 300 22,000  Level Washington Center
Wed 07:09:57 PM 37.0731 -78.9472 191° South 261 300 22,000  Level Washington Center
Wed 07:10:54 PM 37.0017 -78.9650 191° South 261 300 22,000  Level Washington Center
Wed 07:11:55 PM 36.9239 -78.9825 190° South 261 300 22,000  Level Washington Center
Wed 07:12:55 PM 36.8544 -79.0003 192° South 261 300 22,000 -50 Level Washington Center
Wed 07:13:54 PM 36.7811 -79.0100 186° South 261 300 21,900 -300 Descending Washington Center
Wed 07:14:55 PM 36.7022 -79.0039 176° South 261 300 21,400 -443 Descending Washington Center
Wed 07:15:56 PM 36.6356 -78.9983 176° South 266 306 21,000 -454 Descending Washington Center
Wed 07:16:54 PM 36.5564 -78.9897 175° South 277 319 20,500 -508 Descending Washington Center
Wed 07:17:54 PM 36.4775 -78.9783 173° South 282 325 20,000 -250 Descending Washington Center
Wed 07:18:54 PM 36.4006 -78.9700 175° South 282 325 20,000  Level Washington Center
Wed 07:19:56 PM 36.3256 -78.9642 176° South 282 325 20,000  Level Washington Center
Wed 07:20:57 PM 36.2581 -78.9947 200° South 270 311 20,000 -252 Level Washington Center
Wed 07:21:55 PM 36.1883 -79.0253 199° South 263 303 19,500 -776 Descending Washington Center
Wed 07:22:53 PM 36.1081 -79.0575 198° South 281 323 18,500 -1,091 Descending Washington Center
Wed 07:23:56 PM 36.0406 -79.0831 197° South 279 321 17,300 -1,388 Descending Washington Center
Wed 07:24:54 PM 35.9667 -79.1078 195° South 285 328 15,700 -1,540 Descending Washington Center
Wed 07:25:49 PM 35.8928 -79.1381 198° South 273 314 14,400 -1,328 Descending Washington Center
Wed 07:26:56 PM 35.8147 -79.1653 196° South 266 306 13,000 -1,343 Descending Washington Center
Wed 07:26:56 PM 35.8147 -79.1653 196° South 280 322 12,900 -1,034 Descending Washington Center
Wed 07:27:54 PM 35.7492 -79.1931 199° South 264 304 12,000 -1,271 Descending Washington Center
Wed 07:28:54 PM 35.6881 -79.2158 197° South 241 277 10,400 -1,636 Descending Washington Center
Wed 07:29:55 PM 35.6269 -79.2386 197° South 241 277 8,700 -1,950 Descending Washington Center
Wed 07:30:54 PM 35.5675 -79.2664 201° Southwest 241 277 6,500 -2,067 Descending Washington Center
Wed 07:31:54 PM 35.5000 -79.2967 200° South 241 277 4,600 -1,900 Descending Washington Center
Wed 07:33:00 PM 35.4286 -79.3179 192° South  Level FlightAware Approximate
Wed 07:40:00 PM 35.2333 -79.3833 195° South  Level FlightAware Approximate
Wed 07:41:00 PM 35.2380 -79.3883 195° South  Level Estimated

Login

Don't have an account? Register now (free) for customized features, flight alerts, and more!